Azamara Quest — 9HOM8 — position and weather

sailwx.info

Track history (hours):
 
Tides and Currents Weather Stations Pressure Air Temp Water Temp Dewpoint Dewpoint Depression Visibility Wind Speed Wind Dir Waves Ship Positions

Azamara Quest

Last reported at 2019-Feb-23 14:00 UTC. Time now 2019-Feb-23 16:42 UTC.
Position S 37°36' E 178°36'.

Length 181 m; draft 5.9 m.

Type: Passenger vessel. MMSI: 256216000.

Wind from 270 at 20 knots

Barometer 1000.0 mb
Air temperature 20.0 ° C
Visibility: greater than 27.0 NM
Dewpoint 8.7 ° C
Water temperature 16.0 ° C

Date/timePositionNaut miles runAvg speedWind from/ knotsBaromVisibWave heightAir tempDewpointWater temp
2019-Feb-23 14:00S 37°36' E 178°36'10713.2 270 / 201000.027.0 20.0 8.716.0
2019-Feb-23 05:56S 37°29' E 176°22'714.0
2019-Feb-23 05:25S 37°33' E 176°14'512.3
2019-Feb-23 05:00S 37°37' E 176°10'2 2.7
2019-Feb-23 04:25S 37°39' E 176°11'0 0.0
2019-Feb-23 03:55S 37°39' E 176°11'0 0.0
2019-Feb-23 03:25S 37°39' E 176°11'0 0.0
2019-Feb-23 02:55S 37°39' E 176°11'0 0.0
2019-Feb-23 02:25S 37°39' E 176°11'0 0.0
2019-Feb-23 01:55S 37°39' E 176°11'0 0.0
2019-Feb-23 01:25S 37°39' E 176°11'0 0.0
2019-Feb-23 00:55S 37°39' E 176°11'0 0.0
2019-Feb-23 00:25S 37°39' E 176°11'0 0.0
2019-Feb-22 23:49S 37°39' E 176°11'0 0.0
2019-Feb-22 23:25S 37°39' E 176°11'0 0.0
2019-Feb-22 22:55S 37°39' E 176°11'0 0.0
2019-Feb-22 22:25S 37°39' E 176°11'0 0.0
2019-Feb-22 21:55S 37°39' E 176°11'0 0.0
2019-Feb-22 21:25S 37°39' E 176°11'0 0.0
2019-Feb-22 20:55S 37°39' E 176°11'0 0.0
2019-Feb-22 20:25S 37°39' E 176°11'0 0.0
2019-Feb-22 19:55S 37°39' E 176°11'0 0.0
2019-Feb-22 19:25S 37°39' E 176°11'0 0.0
2019-Feb-22 18:55S 37°39' E 176°11'0 0.0
2019-Feb-22 18:25S 37°39' E 176°11'1 3.0
2019-Feb-22 18:01S 37°38' E 176°10'611.1
2019-Feb-22 17:31S 37°32' E 176°11'612.7
2019-Feb-22 17:00S 37°26' E 176°11'5714.1
2019-Feb-22 13:00S 36°30' E 176°00'77 3.2 020 / 201010.0 2.2 20.013.017.0
2019-Feb-21 13:00S 35°30' E 175°00'2412.2 020 / 201017.010.8 22.013.418.0
2019-Feb-21 11:00S 35°54' E 174°54'3011.9 040 / 181017.010.8 24.021.013.0
2019-Feb-21 08:29S 36°23' E 175°00'510.3
2019-Feb-21 08:00S 36°28' E 175°01'5 9.8
2019-Feb-21 07:30S 36°33' E 174°59'5 9.9
2019-Feb-21 07:00S 36°38' E 174°57'510.0
2019-Feb-21 06:30S 36°42' E 174°53'5 9.6
2019-Feb-21 05:59S 36°45' E 174°49'5 9.5
2019-Feb-21 05:30S 36°50' E 174°49'3 3.6
2019-Feb-21 04:47S 36°50' E 174°46'0 0.0
2019-Feb-21 04:29S 36°50' E 174°46'0 0.0
2019-Feb-21 03:59S 36°50' E 174°46'0 0.0
2019-Feb-21 02:59S 36°50' E 174°46'0 0.0
2019-Feb-21 01:05S 36°50' E 174°46'0 0.0
2019-Feb-21 00:53S 36°50' E 174°46'0 0.0
2019-Feb-21 00:29S 36°50' E 174°46'0 0.0
2019-Feb-20 23:41S 36°50' E 174°46'0 0.0
2019-Feb-20 23:29S 36°50' E 174°46'0 0.0
2019-Feb-20 22:35S 36°50' E 174°46'0 0.0
2019-Feb-20 22:29S 36°50' E 174°46'0 0.0
2019-Feb-20 21:59S 36°50' E 174°46'0 0.0
2019-Feb-20 21:29S 36°50' E 174°46'0 0.0
2019-Feb-20 20:59S 36°50' E 174°46'0 0.0
2019-Feb-20 20:29S 36°50' E 174°46'0 0.0
2019-Feb-20 19:59S 36°50' E 174°46'0 0.0
2019-Feb-20 19:29S 36°50' E 174°46'0 0.0
2019-Feb-20 18:53S 36°50' E 174°46'0 0.0
2019-Feb-20 18:23S 36°50' E 174°46'0 0.0
2019-Feb-20 17:59S 36°50' E 174°46'0 0.0
2019-Feb-20 17:29S 36°50' E 174°46'0 0.0
2019-Feb-20 16:59S 36°50' E 174°46'0 0.0
2019-Feb-20 16:30S 36°50' E 174°46'2 4.1
2019-Feb-20 16:00S 36°50' E 174°48'611.3
2019-Feb-20 15:30S 36°45' E 174°50'5 9.8
2019-Feb-20 15:00S 36°41' E 174°54'510.0
2019-Feb-20 14:30S 36°37' E 174°58'510.0
2019-Feb-20 13:59S 36°33' E 175°03'510.0
2019-Feb-20 13:28S 36°30' E 175°07'5 9.9
2019-Feb-20 13:00S 36°26' E 175°11'8612.4
2019-Feb-20 06:04S 37°38' E 176°10'8 7.3
2019-Feb-20 05:01S 37°31' E 176°12'213.3
2019-Feb-20 04:53S 37°32' E 176°12'411.7
2019-Feb-20 04:30S 37°37' E 176°10'2 3.8
2019-Feb-20 03:59S 37°39' E 176°11'0 0.0
2019-Feb-20 02:59S 37°39' E 176°11'0 0.0
2019-Feb-20 02:29S 37°39' E 176°11'0 0.0
2019-Feb-20 01:59S 37°39' E 176°11'0 0.0
2019-Feb-20 01:29S 37°39' E 176°11'0 0.0
2019-Feb-20 00:56S 37°39' E 176°11'0 0.0
2019-Feb-20 00:29S 37°39' E 176°11'0 0.0
2019-Feb-19 23:59S 37°39' E 176°11'0 0.0
2019-Feb-19 23:29S 37°39' E 176°11'0 0.0
2019-Feb-19 22:59S 37°39' E 176°11'0 0.0
2019-Feb-19 22:29S 37°39' E 176°11'0 0.0
2019-Feb-19 21:59S 37°39' E 176°11'0 0.0
2019-Feb-19 21:29S 37°39' E 176°11'0 0.0
2019-Feb-19 20:59S 37°39' E 176°11'0 0.0
2019-Feb-19 20:29S 37°39' E 176°11'0 0.0
2019-Feb-19 19:59S 37°39' E 176°11'0 0.2
2019-Feb-19 19:31S 37°39' E 176°11'3 6.5
2019-Feb-19 19:00S 37°35' E 176°11'611.6
2019-Feb-19 18:30S 37°31' E 176°17'1112.5
2019-Feb-19 17:37S 37°27' E 176°30'11810.1
2019-Feb-19 06:00S 38°30' E 178°36'131 3.6 010 / 231010.010.8 21.016.117.0
2019-Feb-17 18:00S 40°18' E 177°00'5814.4 280 / 201011.010.8 18.016.318.0
2019-Feb-17 14:00S 41°06' E 176°18'5217.8 360 / 251011.027.0 18.0 5.811.0
2019-Feb-17 11:04S 41°39' E 175°24'116.9
2019-Feb-17 11:00S 41°39' E 175°23'816.7
2019-Feb-17 10:30S 41°44' E 175°14'816.5
2019-Feb-17 10:00S 41°49' E 175°04'816.1
2019-Feb-17 09:30S 41°53' E 174°56'816.1
2019-Feb-17 09:00S 41°57' E 174°46'714.0
2019-Feb-17 08:30S 42°01' E 174°39'713.9
2019-Feb-17 08:00S 42°05' E 174°31'714.0
2019-Feb-17 07:30S 42°09' E 174°23'714.4
2019-Feb-17 07:00S 42°13' E 174°15'914.9
2019-Feb-17 06:23S 42°18' E 174°04'715.3
2019-Feb-17 05:55S 42°22' E 173°56'35 2.2
2019-Feb-16 14:00S 42°54' E 173°36'123 5.1 020 / 111016.027.0 14.0 2.811.0
2019-Feb-15 14:00S 44°36' E 172°00'132 5.7 180 / 351011.010.8 13.0 1.4 9.0
2019-Feb-14 15:00S 46°24' E 170°12'2412.2 270 / 141012.027.0 14.0 2.810.0
2019-Feb-14 13:00S 46°42' E 169°48'1311.0 270 / 111011.027.0 14.0 2.810.0
2019-Feb-14 11:50S 46°51' E 169°34'413.8
2019-Feb-14 11:30S 46°52' E 169°28'815.9
2019-Feb-14 11:00S 46°54' E 169°17'145.8
2019-Feb-14 11:00S 46°54' E 169°18'919.3 260 / 141010.010.8 15.011.313.0
2019-Feb-14 10:30S 46°55' E 169°04'917.2
2019-Feb-14 10:00S 46°55' E 168°52'917.4
2019-Feb-14 09:30S 46°54' E 168°39'917.8
2019-Feb-14 09:00S 46°53' E 168°26'3169.7
2019-Feb-14 09:00S 46°54' E 168°30'1122.6 260 / 141010.010.8 16.010.413.0
2019-Feb-14 08:30S 46°48' E 168°17'918.1
2019-Feb-14 08:00S 46°41' E 168°08'918.1
2019-Feb-14 07:30S 46°36' E 167°57'917.8
2019-Feb-14 07:00S 46°33' E 167°45'18312651.8
2019-Feb-14 07:00S 43°30' E 167°42'176135.4 250 / 181010.010.8 16.012.415.0
2019-Feb-14 05:41S 46°25' E 167°14'317.0
2019-Feb-14 05:29S 46°24' E 167°09'1224.2
2019-Feb-14 05:00S 46°18' E 166°54'3913.0 260 / 191010.010.8 16.012.415.0
2019-Feb-14 02:00S 45°48' E 166°18'2727.1 270 / 201009.027.0 15.0 6.910.0
2019-Feb-14 01:00S 45°24' E 166°36'4213.9 260 / 81003.027.0 15.0 1.411.0
2019-Feb-13 22:00S 44°48' E 167°06'22 4.4 220 / 301004.0 1.1 16.014.313.0
2019-Feb-13 17:00S 44°30' E 167°24'3517.4 050 / 451003.0 5.4 16.016.015.0
2019-Feb-13 15:00S 44°24' E 166°36'   360 / 381003.0 2.2 16.0 5.712.0
Track history (hours):
 
Tides and Currents Weather Stations Pressure Air Temp Water Temp Dewpoint Dewpoint Depression Visibility Wind Speed Wind Dir Waves Ship Positions

Azamara Quest

Last reported at 2019-Feb-23 14:00 UTC. Time now 2019-Feb-23 16:42 UTC.
Position S 37°36' E 178°36'.

Length 181 m; draft 5.9 m.

Type: Passenger vessel. MMSI: 256216000.

Wind from 270 at 20 knots

Barometer 1000.0 mb
Air temperature 20.0 ° C
Visibility: greater than 27.0 NM
Dewpoint 8.7 ° C
Water temperature 16.0 ° C

Date/timePositionNaut miles runAvg speedWind from/ knotsBaromVisibWave heightAir tempDewpointWater temp
2019-Feb-23 14:00S 37°36' E 178°36'10713.2 270 / 201000.027.0 20.0 8.716.0
2019-Feb-23 05:56S 37°29' E 176°22'714.0
2019-Feb-23 05:25S 37°33' E 176°14'512.3
2019-Feb-23 05:00S 37°37' E 176°10'2 2.7
2019-Feb-23 04:25S 37°39' E 176°11'0 0.0
2019-Feb-23 03:55S 37°39' E 176°11'0 0.0
2019-Feb-23 03:25S 37°39' E 176°11'0 0.0
2019-Feb-23 02:55S 37°39' E 176°11'0 0.0
2019-Feb-23 02:25S 37°39' E 176°11'0 0.0
2019-Feb-23 01:55S 37°39' E 176°11'0 0.0
2019-Feb-23 01:25S 37°39' E 176°11'0 0.0
2019-Feb-23 00:55S 37°39' E 176°11'0 0.0
2019-Feb-23 00:25S 37°39' E 176°11'0 0.0
2019-Feb-22 23:49S 37°39' E 176°11'0 0.0
2019-Feb-22 23:25S 37°39' E 176°11'0 0.0
2019-Feb-22 22:55S 37°39' E 176°11'0 0.0
2019-Feb-22 22:25S 37°39' E 176°11'0 0.0
2019-Feb-22 21:55S 37°39' E 176°11'0 0.0
2019-Feb-22 21:25S 37°39' E 176°11'0 0.0
2019-Feb-22 20:55S 37°39' E 176°11'0 0.0
2019-Feb-22 20:25S 37°39' E 176°11'0 0.0
2019-Feb-22 19:55S 37°39' E 176°11'0 0.0
2019-Feb-22 19:25S 37°39' E 176°11'0 0.0
2019-Feb-22 18:55S 37°39' E 176°11'0 0.0
2019-Feb-22 18:25S 37°39' E 176°11'1 3.0
2019-Feb-22 18:01S 37°38' E 176°10'611.1
2019-Feb-22 17:31S 37°32' E 176°11'612.7
2019-Feb-22 17:00S 37°26' E 176°11'5714.1
2019-Feb-22 13:00S 36°30' E 176°00'77 3.2 020 / 201010.0 2.2 20.013.017.0
2019-Feb-21 13:00S 35°30' E 175°00'2412.2 020 / 201017.010.8 22.013.418.0
2019-Feb-21 11:00S 35°54' E 174°54'3011.9 040 / 181017.010.8 24.021.013.0
2019-Feb-21 08:29S 36°23' E 175°00'510.3
2019-Feb-21 08:00S 36°28' E 175°01'5 9.8
2019-Feb-21 07:30S 36°33' E 174°59'5 9.9
2019-Feb-21 07:00S 36°38' E 174°57'510.0
2019-Feb-21 06:30S 36°42' E 174°53'5 9.6
2019-Feb-21 05:59S 36°45' E 174°49'5 9.5
2019-Feb-21 05:30S 36°50' E 174°49'3 3.6
2019-Feb-21 04:47S 36°50' E 174°46'0 0.0
2019-Feb-21 04:29S 36°50' E 174°46'0 0.0
2019-Feb-21 03:59S 36°50' E 174°46'0 0.0
2019-Feb-21 02:59S 36°50' E 174°46'0 0.0
2019-Feb-21 01:05S 36°50' E 174°46'0 0.0
2019-Feb-21 00:53S 36°50' E 174°46'0 0.0
2019-Feb-21 00:29S 36°50' E 174°46'0 0.0
2019-Feb-20 23:41S 36°50' E 174°46'0 0.0
2019-Feb-20 23:29S 36°50' E 174°46'0 0.0
2019-Feb-20 22:35S 36°50' E 174°46'0 0.0
2019-Feb-20 22:29S 36°50' E 174°46'0 0.0
2019-Feb-20 21:59S 36°50' E 174°46'0 0.0
2019-Feb-20 21:29S 36°50' E 174°46'0 0.0
2019-Feb-20 20:59S 36°50' E 174°46'0 0.0
2019-Feb-20 20:29S 36°50' E 174°46'0 0.0
2019-Feb-20 19:59S 36°50' E 174°46'0 0.0
2019-Feb-20 19:29S 36°50' E 174°46'0 0.0
2019-Feb-20 18:53S 36°50' E 174°46'0 0.0
2019-Feb-20 18:23S 36°50' E 174°46'0 0.0
2019-Feb-20 17:59S 36°50' E 174°46'0 0.0
2019-Feb-20 17:29S 36°50' E 174°46'0 0.0
2019-Feb-20 16:59S 36°50' E 174°46'0 0.0
2019-Feb-20 16:30S 36°50' E 174°46'2 4.1
2019-Feb-20 16:00S 36°50' E 174°48'611.3
2019-Feb-20 15:30S 36°45' E 174°50'5 9.8
2019-Feb-20 15:00S 36°41' E 174°54'510.0
2019-Feb-20 14:30S 36°37' E 174°58'510.0
2019-Feb-20 13:59S 36°33' E 175°03'510.0
2019-Feb-20 13:28S 36°30' E 175°07'5 9.9
2019-Feb-20 13:00S 36°26' E 175°11'8612.4
2019-Feb-20 06:04S 37°38' E 176°10'8 7.3
2019-Feb-20 05:01S 37°31' E 176°12'213.3
2019-Feb-20 04:53S 37°32' E 176°12'411.7
2019-Feb-20 04:30S 37°37' E 176°10'2 3.8
2019-Feb-20 03:59S 37°39' E 176°11'0 0.0
2019-Feb-20 02:59S 37°39' E 176°11'0 0.0
2019-Feb-20 02:29S 37°39' E 176°11'0 0.0
2019-Feb-20 01:59S 37°39' E 176°11'0 0.0
2019-Feb-20 01:29S 37°39' E 176°11'0 0.0
2019-Feb-20 00:56S 37°39' E 176°11'0 0.0
2019-Feb-20 00:29S 37°39' E 176°11'0 0.0
2019-Feb-19 23:59S 37°39' E 176°11'0 0.0
2019-Feb-19 23:29S 37°39' E 176°11'0 0.0
2019-Feb-19 22:59S 37°39' E 176°11'0 0.0
2019-Feb-19 22:29S 37°39' E 176°11'0 0.0
2019-Feb-19 21:59S 37°39' E 176°11'0 0.0
2019-Feb-19 21:29S 37°39' E 176°11'0 0.0
2019-Feb-19 20:59S 37°39' E 176°11'0 0.0
2019-Feb-19 20:29S 37°39' E 176°11'0 0.0
2019-Feb-19 19:59S 37°39' E 176°11'0 0.2
2019-Feb-19 19:31S 37°39' E 176°11'3 6.5
2019-Feb-19 19:00S 37°35' E 176°11'611.6
2019-Feb-19 18:30S 37°31' E 176°17'1112.5
2019-Feb-19 17:37S 37°27' E 176°30'11810.1
2019-Feb-19 06:00S 38°30' E 178°36'131 3.6 010 / 231010.010.8 21.016.117.0
2019-Feb-17 18:00S 40°18' E 177°00'5814.4 280 / 201011.010.8 18.016.318.0
2019-Feb-17 14:00S 41°06' E 176°18'5217.8 360 / 251011.027.0 18.0 5.811.0
2019-Feb-17 11:04S 41°39' E 175°24'116.9
2019-Feb-17 11:00S 41°39' E 175°23'816.7
2019-Feb-17 10:30S 41°44' E 175°14'816.5
2019-Feb-17 10:00S 41°49' E 175°04'816.1
2019-Feb-17 09:30S 41°53' E 174°56'816.1
2019-Feb-17 09:00S 41°57' E 174°46'714.0
2019-Feb-17 08:30S 42°01' E 174°39'713.9
2019-Feb-17 08:00S 42°05' E 174°31'714.0
2019-Feb-17 07:30S 42°09' E 174°23'714.4
2019-Feb-17 07:00S 42°13' E 174°15'914.9
2019-Feb-17 06:23S 42°18' E 174°04'715.3
2019-Feb-17 05:55S 42°22' E 173°56'35 2.2
2019-Feb-16 14:00S 42°54' E 173°36'123 5.1 020 / 111016.027.0 14.0 2.811.0
2019-Feb-15 14:00S 44°36' E 172°00'132 5.7 180 / 351011.010.8 13.0 1.4 9.0
2019-Feb-14 15:00S 46°24' E 170°12'2412.2 270 / 141012.027.0 14.0 2.810.0
2019-Feb-14 13:00S 46°42' E 169°48'1311.0 270 / 111011.027.0 14.0 2.810.0
2019-Feb-14 11:50S 46°51' E 169°34'413.8
2019-Feb-14 11:30S 46°52' E 169°28'815.9
2019-Feb-14 11:00S 46°54' E 169°17'145.8
2019-Feb-14 11:00S 46°54' E 169°18'919.3 260 / 141010.010.8 15.011.313.0
2019-Feb-14 10:30S 46°55' E 169°04'917.2
2019-Feb-14 10:00S 46°55' E 168°52'917.4
2019-Feb-14 09:30S 46°54' E 168°39'917.8
2019-Feb-14 09:00S 46°53' E 168°26'3169.7
2019-Feb-14 09:00S 46°54' E 168°30'1122.6 260 / 141010.010.8 16.010.413.0
2019-Feb-14 08:30S 46°48' E 168°17'918.1
2019-Feb-14 08:00S 46°41' E 168°08'918.1
2019-Feb-14 07:30S 46°36' E 167°57'917.8
2019-Feb-14 07:00S 46°33' E 167°45'18312651.8
2019-Feb-14 07:00S 43°30' E 167°42'176135.4 250 / 181010.010.8 16.012.415.0
2019-Feb-14 05:41S 46°25' E 167°14'317.0
2019-Feb-14 05:29S 46°24' E 167°09'1224.2
2019-Feb-14 05:00S 46°18' E 166°54'3913.0 260 / 191010.010.8 16.012.415.0
2019-Feb-14 02:00S 45°48' E 166°18'2727.1 270 / 201009.027.0 15.0 6.910.0
2019-Feb-14 01:00S 45°24' E 166°36'4213.9 260 / 81003.027.0 15.0 1.411.0
2019-Feb-13 22:00S 44°48' E 167°06'22 4.4 220 / 301004.0 1.1 16.014.313.0
2019-Feb-13 17:00S 44°30' E 167°24'3517.4 050 / 451003.0 5.4 16.016.015.0
2019-Feb-13 15:00S 44°24' E 166°36'   360 / 381003.0 2.2 16.0 5.712.0

Dump ship's entire track history